sensor_id;sensor_type;location;lat;lon;timestamp;temperature;humidity
5962;DHT22;3007;50.770;0.250;2022-09-09T00:00:55;16.80;99.90
5962;DHT22;3007;50.770;0.250;2022-09-09T00:03:27;16.80;99.90
5962;DHT22;3007;50.770;0.250;2022-09-09T00:06:01;16.80;99.90
5962;DHT22;3007;50.770;0.250;2022-09-09T00:08:36;16.80;99.90
5962;DHT22;3007;50.770;0.250;2022-09-09T00:11:05;16.80;99.90
5962;DHT22;3007;50.770;0.250;2022-09-09T00:13:39;16.80;99.90
5962;DHT22;3007;50.770;0.250;2022-09-09T00:16:14;16.80;99.90
5962;DHT22;3007;50.770;0.250;2022-09-09T00:18:51;16.90;99.90
5962;DHT22;3007;50.770;0.250;2022-09-09T00:21:24;16.90;99.90
5962;DHT22;3007;50.770;0.250;2022-09-09T00:23:54;16.90;99.90
5962;DHT22;3007;50.770;0.250;2022-09-09T00:26:29;16.90;99.90
5962;DHT22;3007;50.770;0.250;2022-09-09T00:29:03;16.90;99.90
5962;DHT22;3007;50.770;0.250;2022-09-09T00:31:32;16.90;99.90
5962;DHT22;3007;50.770;0.250;2022-09-09T00:34:05;16.90;99.90
5962;DHT22;3007;50.770;0.250;2022-09-09T00:36:36;16.80;99.90
5962;DHT22;3007;50.770;0.250;2022-09-09T00:39:04;16.80;99.90
5962;DHT22;3007;50.770;0.250;2022-09-09T00:41:44;16.70;99.90
5962;DHT22;3007;50.770;0.250;2022-09-09T00:44:25;16.70;99.90
5962;DHT22;3007;50.770;0.250;2022-09-09T00:47:08;16.70;99.90
5962;DHT22;3007;50.770;0.250;2022-09-09T00:49:44;16.70;99.90
5962;DHT22;3007;50.770;0.250;2022-09-09T00:52:23;16.80;99.90
5962;DHT22;3007;50.770;0.250;2022-09-09T00:55:01;16.80;99.90
5962;DHT22;3007;50.770;0.250;2022-09-09T00:57:31;16.90;99.90
5962;DHT22;3007;50.770;0.250;2022-09-09T01:00:19;16.80;99.90
5962;DHT22;3007;50.770;0.250;2022-09-09T01:02:53;16.80;99.90
5962;DHT22;3007;50.770;0.250;2022-09-09T01:05:29;16.70;99.90
5962;DHT22;3007;50.770;0.250;2022-09-09T01:08:02;16.70;99.90
5962;DHT22;3007;50.770;0.250;2022-09-09T01:10:36;16.60;99.90
5962;DHT22;3007;50.770;0.250;2022-09-09T01:13:13;16.50;99.90
5962;DHT22;3007;50.770;0.250;2022-09-09T01:15:44;16.60;99.90
5962;DHT22;3007;50.770;0.250;2022-09-09T01:18:15;16.60;99.90
5962;DHT22;3007;50.770;0.250;2022-09-09T01:20:49;16.60;99.90
5962;DHT22;3007;50.770;0.250;2022-09-09T01:23:41;16.60;99.90
5962;DHT22;3007;50.770;0.250;2022-09-09T01:26:23;16.50;99.90
5962;DHT22;3007;50.770;0.250;2022-09-09T01:28:52;16.60;99.90
5962;DHT22;3007;50.770;0.250;2022-09-09T01:31:23;16.60;99.90
5962;DHT22;3007;50.770;0.250;2022-09-09T01:33:53;16.60;99.90
5962;DHT22;3007;50.770;0.250;2022-09-09T01:36:26;16.60;99.90
5962;DHT22;3007;50.770;0.250;2022-09-09T01:38:55;16.60;99.90
5962;DHT22;3007;50.770;0.250;2022-09-09T01:41:24;16.60;99.90
5962;DHT22;3007;50.770;0.250;2022-09-09T01:43:52;16.60;99.90
5962;DHT22;3007;50.770;0.250;2022-09-09T01:46:21;16.60;99.90
5962;DHT22;3007;50.770;0.250;2022-09-09T01:48:50;16.60;99.90
5962;DHT22;3007;50.770;0.250;2022-09-09T01:51:18;16.60;99.90
5962;DHT22;3007;50.770;0.250;2022-09-09T01:53:45;16.60;99.90
5962;DHT22;3007;50.770;0.250;2022-09-09T01:56:21;16.50;99.90
5962;DHT22;3007;50.770;0.250;2022-09-09T01:59:01;16.60;99.90
5962;DHT22;3007;50.770;0.250;2022-09-09T02:01:46;16.50;99.90
5962;DHT22;3007;50.770;0.250;2022-09-09T02:04:24;16.50;99.90
5962;DHT22;3007;50.770;0.250;2022-09-09T02:06:56;16.50;99.90
5962;DHT22;3007;50.770;0.250;2022-09-09T02:09:24;16.40;99.90
5962;DHT22;3007;50.770;0.250;2022-09-09T02:11:55;16.50;99.90
5962;DHT22;3007;50.770;0.250;2022-09-09T02:14:29;16.50;99.90
5962;DHT22;3007;50.770;0.250;2022-09-09T02:17:01;16.50;99.90
5962;DHT22;3007;50.770;0.250;2022-09-09T02:19:32;16.50;99.90
5962;DHT22;3007;50.770;0.250;2022-09-09T02:22:00;16.50;99.90
5962;DHT22;3007;50.770;0.250;2022-09-09T02:24:30;16.50;99.90
5962;DHT22;3007;50.770;0.250;2022-09-09T02:27:03;16.50;99.90
5962;DHT22;3007;50.770;0.250;2022-09-09T02:29:35;16.40;99.90
5962;DHT22;3007;50.770;0.250;2022-09-09T02:32:06;16.30;99.90
5962;DHT22;3007;50.770;0.250;2022-09-09T02:34:35;16.20;99.90
5962;DHT22;3007;50.770;0.250;2022-09-09T02:37:06;16.10;99.90
5962;DHT22;3007;50.770;0.250;2022-09-09T02:39:34;16.00;99.90
5962;DHT22;3007;50.770;0.250;2022-09-09T02:42:02;16.00;99.90
5962;DHT22;3007;50.770;0.250;2022-09-09T02:44:30;15.90;99.90
5962;DHT22;3007;50.770;0.250;2022-09-09T02:47:10;15.80;99.90
5962;DHT22;3007;50.770;0.250;2022-09-09T02:49:47;15.80;99.90
5962;DHT22;3007;50.770;0.250;2022-09-09T02:52:20;15.70;99.90
5962;DHT22;3007;50.770;0.250;2022-09-09T02:54:54;15.70;99.90
5962;DHT22;3007;50.770;0.250;2022-09-09T02:57:27;15.70;99.90
5962;DHT22;3007;50.770;0.250;2022-09-09T02:59:57;15.70;99.90
5962;DHT22;3007;50.770;0.250;2022-09-09T03:02:26;15.70;99.90
5962;DHT22;3007;50.770;0.250;2022-09-09T03:04:53;15.60;99.90
5962;DHT22;3007;50.770;0.250;2022-09-09T03:07:20;15.60;99.90
5962;DHT22;3007;50.770;0.250;2022-09-09T03:09:47;15.60;99.90
5962;DHT22;3007;50.770;0.250;2022-09-09T03:12:14;15.50;99.90
5962;DHT22;3007;50.770;0.250;2022-09-09T03:14:41;15.50;99.90
5962;DHT22;3007;50.770;0.250;2022-09-09T03:17:09;15.50;99.90
5962;DHT22;3007;50.770;0.250;2022-09-09T03:19:38;15.50;99.90
5962;DHT22;3007;50.770;0.250;2022-09-09T03:22:05;15.40;99.90
5962;DHT22;3007;50.770;0.250;2022-09-09T03:24:32;15.40;99.90
5962;DHT22;3007;50.770;0.250;2022-09-09T03:26:59;15.40;99.90
5962;DHT22;3007;50.770;0.250;2022-09-09T03:29:26;15.30;99.90
5962;DHT22;3007;50.770;0.250;2022-09-09T03:31:53;15.30;99.90
5962;DHT22;3007;50.770;0.250;2022-09-09T03:34:20;15.30;99.90
5962;DHT22;3007;50.770;0.250;2022-09-09T03:36:48;15.20;99.90
5962;DHT22;3007;50.770;0.250;2022-09-09T03:39:15;15.20;99.90
5962;DHT22;3007;50.770;0.250;2022-09-09T03:41:42;15.20;99.90
5962;DHT22;3007;50.770;0.250;2022-09-09T03:44:13;15.10;99.90
5962;DHT22;3007;50.770;0.250;2022-09-09T03:46:40;15.10;99.90
5962;DHT22;3007;50.770;0.250;2022-09-09T03:49:08;15.00;99.90
5962;DHT22;3007;50.770;0.250;2022-09-09T03:51:38;15.00;99.90
5962;DHT22;3007;50.770;0.250;2022-09-09T03:54:07;15.00;99.90
5962;DHT22;3007;50.770;0.250;2022-09-09T03:56:36;14.90;99.90
5962;DHT22;3007;50.770;0.250;2022-09-09T03:59:03;14.90;99.90
5962;DHT22;3007;50.770;0.250;2022-09-09T04:01:30;14.80;99.90
5962;DHT22;3007;50.770;0.250;2022-09-09T04:03:57;14.80;99.90
5962;DHT22;3007;50.770;0.250;2022-09-09T04:06:25;14.80;99.90
5962;DHT22;3007;50.770;0.250;2022-09-09T04:08:52;14.80;99.90
5962;DHT22;3007;50.770;0.250;2022-09-09T04:11:20;14.80;99.90
5962;DHT22;3007;50.770;0.250;2022-09-09T04:13:47;14.80;99.90
5962;DHT22;3007;50.770;0.250;2022-09-09T04:16:15;14.80;99.90
5962;DHT22;3007;50.770;0.250;2022-09-09T04:18:42;14.70;99.90
5962;DHT22;3007;50.770;0.250;2022-09-09T04:21:10;14.80;99.90
5962;DHT22;3007;50.770;0.250;2022-09-09T04:23:38;14.80;99.90
5962;DHT22;3007;50.770;0.250;2022-09-09T04:26:06;14.80;99.90
5962;DHT22;3007;50.770;0.250;2022-09-09T04:28:35;14.80;99.90
5962;DHT22;3007;50.770;0.250;2022-09-09T04:31:06;14.80;99.90
5962;DHT22;3007;50.770;0.250;2022-09-09T04:33:34;14.90;99.90
5962;DHT22;3007;50.770;0.250;2022-09-09T04:36:01;14.90;99.90
5962;DHT22;3007;50.770;0.250;2022-09-09T04:38:28;15.00;99.90
5962;DHT22;3007;50.770;0.250;2022-09-09T04:40:55;15.00;99.90
5962;DHT22;3007;50.770;0.250;2022-09-09T04:43:23;15.00;99.90
5962;DHT22;3007;50.770;0.250;2022-09-09T04:45:52;15.10;99.90
5962;DHT22;3007;50.770;0.250;2022-09-09T04:48:19;15.20;99.90
5962;DHT22;3007;50.770;0.250;2022-09-09T04:50:54;15.20;99.90
5962;DHT22;3007;50.770;0.250;2022-09-09T04:53:23;15.30;99.90
5962;DHT22;3007;50.770;0.250;2022-09-09T04:55:51;15.30;99.90
5962;DHT22;3007;50.770;0.250;2022-09-09T04:58:18;15.30;99.90
5962;DHT22;3007;50.770;0.250;2022-09-09T05:00:48;15.40;99.90
5962;DHT22;3007;50.770;0.250;2022-09-09T05:03:16;15.40;99.90
5962;DHT22;3007;50.770;0.250;2022-09-09T05:05:43;15.40;99.90
5962;DHT22;3007;50.770;0.250;2022-09-09T05:08:12;15.40;99.90
5962;DHT22;3007;50.770;0.250;2022-09-09T05:10:39;15.40;99.90
5962;DHT22;3007;50.770;0.250;2022-09-09T05:13:07;15.40;99.90
5962;DHT22;3007;50.770;0.250;2022-09-09T05:15:34;15.40;99.90
5962;DHT22;3007;50.770;0.250;2022-09-09T05:18:02;15.40;99.90
5962;DHT22;3007;50.770;0.250;2022-09-09T05:20:30;15.40;99.90
5962;DHT22;3007;50.770;0.250;2022-09-09T05:22:57;15.40;99.90
5962;DHT22;3007;50.770;0.250;2022-09-09T05:25:24;15.50;99.90
5962;DHT22;3007;50.770;0.250;2022-09-09T05:27:52;15.50;99.90
5962;DHT22;3007;50.770;0.250;2022-09-09T05:30:20;15.50;99.90
5962;DHT22;3007;50.770;0.250;2022-09-09T05:32:48;15.50;99.90
5962;DHT22;3007;50.770;0.250;2022-09-09T05:35:15;15.50;99.90
5962;DHT22;3007;50.770;0.250;2022-09-09T05:37:46;15.50;99.90
5962;DHT22;3007;50.770;0.250;2022-09-09T05:40:13;15.60;99.90
5962;DHT22;3007;50.770;0.250;2022-09-09T05:42:40;15.60;99.90
5962;DHT22;3007;50.770;0.250;2022-09-09T05:45:08;15.50;99.90
5962;DHT22;3007;50.770;0.250;2022-09-09T05:47:37;15.60;99.90
5962;DHT22;3007;50.770;0.250;2022-09-09T05:50:04;15.60;99.90
5962;DHT22;3007;50.770;0.250;2022-09-09T05:52:31;15.60;99.90
5962;DHT22;3007;50.770;0.250;2022-09-09T05:55:00;15.60;99.90
5962;DHT22;3007;50.770;0.250;2022-09-09T05:57:27;15.60;99.90
5962;DHT22;3007;50.770;0.250;2022-09-09T05:59:54;15.60;99.90
5962;DHT22;3007;50.770;0.250;2022-09-09T06:02:20;15.60;99.90
5962;DHT22;3007;50.770;0.250;2022-09-09T06:04:47;15.60;99.90
5962;DHT22;3007;50.770;0.250;2022-09-09T06:07:20;15.70;99.90
5962;DHT22;3007;50.770;0.250;2022-09-09T06:09:47;15.70;99.90
5962;DHT22;3007;50.770;0.250;2022-09-09T06:12:17;15.80;99.90
5962;DHT22;3007;50.770;0.250;2022-09-09T06:14:46;15.70;99.90
5962;DHT22;3007;50.770;0.250;2022-09-09T06:17:13;15.80;99.90
5962;DHT22;3007;50.770;0.250;2022-09-09T06:19:40;15.80;99.90
5962;DHT22;3007;50.770;0.250;2022-09-09T06:22:07;15.90;99.90
5962;DHT22;3007;50.770;0.250;2022-09-09T06:24:38;15.90;99.90
5962;DHT22;3007;50.770;0.250;2022-09-09T06:27:05;16.00;99.90
5962;DHT22;3007;50.770;0.250;2022-09-09T06:29:34;16.00;99.90
5962;DHT22;3007;50.770;0.250;2022-09-09T06:32:03;16.00;99.90
5962;DHT22;3007;50.770;0.250;2022-09-09T06:34:30;16.10;99.90
5962;DHT22;3007;50.770;0.250;2022-09-09T06:36:57;16.20;99.90
5962;DHT22;3007;50.770;0.250;2022-09-09T06:39:24;16.20;99.90
5962;DHT22;3007;50.770;0.250;2022-09-09T06:41:51;16.30;99.90
5962;DHT22;3007;50.770;0.250;2022-09-09T06:44:22;16.30;99.90
5962;DHT22;3007;50.770;0.250;2022-09-09T06:46:52;17.90;99.90
5962;DHT22;3007;50.770;0.250;2022-09-09T06:49:19;16.40;99.90
5962;DHT22;3007;50.770;0.250;2022-09-09T06:51:46;16.40;99.90
5962;DHT22;3007;50.770;0.250;2022-09-09T06:54:13;16.50;99.90
5962;DHT22;3007;50.770;0.250;2022-09-09T06:56:41;16.50;99.90
5962;DHT22;3007;50.770;0.250;2022-09-09T06:59:10;16.50;99.90
5962;DHT22;3007;50.770;0.250;2022-09-09T07:01:39;16.60;99.90
5962;DHT22;3007;50.770;0.250;2022-09-09T07:04:08;16.50;99.90
5962;DHT22;3007;50.770;0.250;2022-09-09T07:06:38;17.00;99.90
5962;DHT22;3007;50.770;0.250;2022-09-09T07:09:07;16.60;99.90
5962;DHT22;3007;50.770;0.250;2022-09-09T07:11:37;16.60;99.90
5962;DHT22;3007;50.770;0.250;2022-09-09T07:14:07;16.60;99.90
5962;DHT22;3007;50.770;0.250;2022-09-09T07:16:34;16.60;99.90
5962;DHT22;3007;50.770;0.250;2022-09-09T07:19:03;16.70;99.90
5962;DHT22;3007;50.770;0.250;2022-09-09T07:21:32;16.70;99.90
5962;DHT22;3007;50.770;0.250;2022-09-09T07:24:00;16.80;99.90
5962;DHT22;3007;50.770;0.250;2022-09-09T07:26:29;16.90;99.90
5962;DHT22;3007;50.770;0.250;2022-09-09T07:28:57;17.00;99.90
5962;DHT22;3007;50.770;0.250;2022-09-09T07:31:26;17.10;99.90
5962;DHT22;3007;50.770;0.250;2022-09-09T07:33:53;17.20;99.90
5962;DHT22;3007;50.770;0.250;2022-09-09T07:36:22;17.30;99.90
5962;DHT22;3007;50.770;0.250;2022-09-09T07:38:53;17.60;99.90
5962;DHT22;3007;50.770;0.250;2022-09-09T07:41:22;17.90;99.90
5962;DHT22;3007;50.770;0.250;2022-09-09T07:43:50;17.90;99.90
5962;DHT22;3007;50.770;0.250;2022-09-09T07:46:20;18.00;99.90
5962;DHT22;3007;50.770;0.250;2022-09-09T07:48:49;18.10;99.90
5962;DHT22;3007;50.770;0.250;2022-09-09T07:51:19;18.10;99.90
5962;DHT22;3007;50.770;0.250;2022-09-09T07:53:50;18.10;99.90
5962;DHT22;3007;50.770;0.250;2022-09-09T07:56:19;18.10;99.90
5962;DHT22;3007;50.770;0.250;2022-09-09T07:58:53;18.10;99.90
5962;DHT22;3007;50.770;0.250;2022-09-09T08:01:22;18.10;99.90
5962;DHT22;3007;50.770;0.250;2022-09-09T08:03:54;18.10;99.90
5962;DHT22;3007;50.770;0.250;2022-09-09T08:06:21;18.10;99.90
5962;DHT22;3007;50.770;0.250;2022-09-09T08:08:51;18.10;99.90
5962;DHT22;3007;50.770;0.250;2022-09-09T08:11:19;18.10;99.90
5962;DHT22;3007;50.770;0.250;2022-09-09T08:13:50;18.20;99.90
5962;DHT22;3007;50.770;0.250;2022-09-09T08:16:19;18.30;99.90
5962;DHT22;3007;50.770;0.250;2022-09-09T08:18:47;18.30;99.90
5962;DHT22;3007;50.770;0.250;2022-09-09T08:21:16;18.30;99.90
5962;DHT22;3007;50.770;0.250;2022-09-09T08:23:45;18.30;99.90
5962;DHT22;3007;50.770;0.250;2022-09-09T08:26:14;18.40;99.90
5962;DHT22;3007;50.770;0.250;2022-09-09T08:28:43;18.40;99.90
5962;DHT22;3007;50.770;0.250;2022-09-09T08:31:12;18.40;99.90
5962;DHT22;3007;50.770;0.250;2022-09-09T08:33:42;18.30;99.90
5962;DHT22;3007;50.770;0.250;2022-09-09T08:36:15;18.30;99.90
5962;DHT22;3007;50.770;0.250;2022-09-09T08:38:43;18.30;99.90
5962;DHT22;3007;50.770;0.250;2022-09-09T08:41:36;18.30;99.90
5962;DHT22;3007;50.770;0.250;2022-09-09T08:44:10;18.30;99.90
5962;DHT22;3007;50.770;0.250;2022-09-09T08:46:46;18.30;99.90
5962;DHT22;3007;50.770;0.250;2022-09-09T08:49:45;18.30;99.90
5962;DHT22;3007;50.770;0.250;2022-09-09T08:52:17;18.30;99.90
5962;DHT22;3007;50.770;0.250;2022-09-09T08:54:46;18.40;99.90
5962;DHT22;3007;50.770;0.250;2022-09-09T08:57:18;18.40;99.90
5962;DHT22;3007;50.770;0.250;2022-09-09T08:59:48;18.40;99.90
5962;DHT22;3007;50.770;0.250;2022-09-09T09:02:19;18.50;99.90
5962;DHT22;3007;50.770;0.250;2022-09-09T09:05:00;18.60;99.90
5962;DHT22;3007;50.770;0.250;2022-09-09T09:07:44;18.60;99.90
5962;DHT22;3007;50.770;0.250;2022-09-09T09:10:25;18.60;99.90
5962;DHT22;3007;50.770;0.250;2022-09-09T09:12:58;18.60;99.90
5962;DHT22;3007;50.770;0.250;2022-09-09T09:15:33;18.60;99.90
5962;DHT22;3007;50.770;0.250;2022-09-09T09:18:02;18.70;99.90
5962;DHT22;3007;50.770;0.250;2022-09-09T09:20:35;18.70;99.90
5962;DHT22;3007;50.770;0.250;2022-09-09T09:23:12;18.70;99.90
5962;DHT22;3007;50.770;0.250;2022-09-09T09:25:44;18.80;99.90
5962;DHT22;3007;50.770;0.250;2022-09-09T09:28:15;18.90;99.90
5962;DHT22;3007;50.770;0.250;2022-09-09T09:30:49;18.90;99.90
5962;DHT22;3007;50.770;0.250;2022-09-09T09:33:20;19.00;99.90
5962;DHT22;3007;50.770;0.250;2022-09-09T09:35:49;19.00;99.90
5962;DHT22;3007;50.770;0.250;2022-09-09T09:38:18;18.90;99.90
5962;DHT22;3007;50.770;0.250;2022-09-09T09:40:49;18.80;99.90
5962;DHT22;3007;50.770;0.250;2022-09-09T09:43:23;18.70;99.90
5962;DHT22;3007;50.770;0.250;2022-09-09T09:45:52;20.10;99.90
5962;DHT22;3007;50.770;0.250;2022-09-09T09:48:19;18.80;99.90
5962;DHT22;3007;50.770;0.250;2022-09-09T09:50:51;18.90;99.90
5962;DHT22;3007;50.770;0.250;2022-09-09T09:53:22;18.90;99.90
5962;DHT22;3007;50.770;0.250;2022-09-09T09:55:54;19.00;99.90
5962;DHT22;3007;50.770;0.250;2022-09-09T09:58:21;19.10;99.90
5962;DHT22;3007;50.770;0.250;2022-09-09T10:00:49;19.20;99.90
5962;DHT22;3007;50.770;0.250;2022-09-09T10:03:26;19.40;99.90
5962;DHT22;3007;50.770;0.250;2022-09-09T10:05:54;19.50;99.90
5962;DHT22;3007;50.770;0.250;2022-09-09T10:08:22;19.70;99.90
5962;DHT22;3007;50.770;0.250;2022-09-09T10:11:10;19.80;99.90
5962;DHT22;3007;50.770;0.250;2022-09-09T10:13:50;19.90;99.90
5962;DHT22;3007;50.770;0.250;2022-09-09T10:16:37;20.10;99.90
5962;DHT22;3007;50.770;0.250;2022-09-09T10:19:14;20.30;99.90
5962;DHT22;3007;50.770;0.250;2022-09-09T10:21:56;20.50;99.90
5962;DHT22;3007;50.770;0.250;2022-09-09T10:24:41;20.60;99.90
5962;DHT22;3007;50.770;0.250;2022-09-09T10:27:15;20.60;99.90
5962;DHT22;3007;50.770;0.250;2022-09-09T10:29:57;20.40;99.90
5962;DHT22;3007;50.770;0.250;2022-09-09T10:32:39;20.30;99.90
5962;DHT22;3007;50.770;0.250;2022-09-09T10:35:15;20.30;99.90
5962;DHT22;3007;50.770;0.250;2022-09-09T10:37:58;20.30;99.90
5962;DHT22;3007;50.770;0.250;2022-09-09T10:40:31;20.30;99.90
5962;DHT22;3007;50.770;0.250;2022-09-09T10:43:07;20.30;99.90
5962;DHT22;3007;50.770;0.250;2022-09-09T10:45:41;20.40;99.90
5962;DHT22;3007;50.770;0.250;2022-09-09T10:48:25;20.50;99.90
5962;DHT22;3007;50.770;0.250;2022-09-09T10:51:06;20.50;99.90
5962;DHT22;3007;50.770;0.250;2022-09-09T10:53:45;20.50;99.90
5962;DHT22;3007;50.770;0.250;2022-09-09T10:56:18;20.60;99.90
5962;DHT22;3007;50.770;0.250;2022-09-09T10:58:50;20.60;99.90
5962;DHT22;3007;50.770;0.250;2022-09-09T11:01:21;20.60;99.90
5962;DHT22;3007;50.770;0.250;2022-09-09T11:03:53;20.60;99.90
5962;DHT22;3007;50.770;0.250;2022-09-09T11:06:28;20.70;99.90
5962;DHT22;3007;50.770;0.250;2022-09-09T11:08:57;20.80;99.90
5962;DHT22;3007;50.770;0.250;2022-09-09T11:11:31;21.00;99.90
5962;DHT22;3007;50.770;0.250;2022-09-09T11:14:03;21.20;99.90
5962;DHT22;3007;50.770;0.250;2022-09-09T11:16:40;21.30;99.90
5962;DHT22;3007;50.770;0.250;2022-09-09T11:19:15;21.30;99.90
5962;DHT22;3007;50.770;0.250;2022-09-09T11:21:46;21.40;99.90
5962;DHT22;3007;50.770;0.250;2022-09-09T11:24:18;21.40;99.90
5962;DHT22;3007;50.770;0.250;2022-09-09T11:26:51;21.40;99.90
5962;DHT22;3007;50.770;0.250;2022-09-09T11:30:01;21.40;99.90
5962;DHT22;3007;50.770;0.250;2022-09-09T11:32:54;21.40;99.90
5962;DHT22;3007;50.770;0.250;2022-09-09T11:35:34;21.40;99.90
5962;DHT22;3007;50.770;0.250;2022-09-09T11:38:25;21.40;99.90
5962;DHT22;3007;50.770;0.250;2022-09-09T11:41:00;22.20;99.90
5962;DHT22;3007;50.770;0.250;2022-09-09T11:43:30;21.50;99.90
5962;DHT22;3007;50.770;0.250;2022-09-09T11:46:00;21.50;99.90
5962;DHT22;3007;50.770;0.250;2022-09-09T11:48:33;21.50;99.90
5962;DHT22;3007;50.770;0.250;2022-09-09T11:51:04;21.50;99.90
5962;DHT22;3007;50.770;0.250;2022-09-09T11:53:34;21.50;99.90
5962;DHT22;3007;50.770;0.250;2022-09-09T11:56:05;21.50;99.90
5962;DHT22;3007;50.770;0.250;2022-09-09T11:58:37;21.50;99.90
5962;DHT22;3007;50.770;0.250;2022-09-09T12:04:11;21.70;99.90
5962;DHT22;3007;50.770;0.250;2022-09-09T12:06:44;21.70;99.90
5962;DHT22;3007;50.770;0.250;2022-09-09T12:09:22;21.70;99.90
5962;DHT22;3007;50.770;0.250;2022-09-09T12:11:50;21.80;99.90
5962;DHT22;3007;50.770;0.250;2022-09-09T12:14:22;21.80;99.90
5962;DHT22;3007;50.770;0.250;2022-09-09T12:16:50;21.90;99.90
5962;DHT22;3007;50.770;0.250;2022-09-09T12:19:19;21.90;99.90
5962;DHT22;3007;50.770;0.250;2022-09-09T12:21:57;21.90;99.90
5962;DHT22;3007;50.770;0.250;2022-09-09T12:24:32;22.00;99.90
5962;DHT22;3007;50.770;0.250;2022-09-09T12:27:07;22.00;99.90
5962;DHT22;3007;50.770;0.250;2022-09-09T12:29:44;22.00;99.90
5962;DHT22;3007;50.770;0.250;2022-09-09T12:32:22;21.80;99.90
5962;DHT22;3007;50.770;0.250;2022-09-09T12:34:53;21.70;99.90
5962;DHT22;3007;50.770;0.250;2022-09-09T12:37:38;21.50;99.90
5962;DHT22;3007;50.770;0.250;2022-09-09T12:40:19;21.40;99.90
5962;DHT22;3007;50.770;0.250;2022-09-09T12:42:47;21.30;99.90
5962;DHT22;3007;50.770;0.250;2022-09-09T12:45:18;21.30;99.90
5962;DHT22;3007;50.770;0.250;2022-09-09T12:47:48;21.20;99.90
5962;DHT22;3007;50.770;0.250;2022-09-09T12:50:20;21.10;99.90
5962;DHT22;3007;50.770;0.250;2022-09-09T12:52:48;20.90;99.90
5962;DHT22;3007;50.770;0.250;2022-09-09T12:55:19;20.80;99.90
5962;DHT22;3007;50.770;0.250;2022-09-09T12:57:48;20.70;99.90
5962;DHT22;3007;50.770;0.250;2022-09-09T13:00:19;20.70;99.90
5962;DHT22;3007;50.770;0.250;2022-09-09T13:02:50;20.60;99.90
5962;DHT22;3007;50.770;0.250;2022-09-09T13:05:20;20.60;99.90
5962;DHT22;3007;50.770;0.250;2022-09-09T13:07:48;20.50;99.90
5962;DHT22;3007;50.770;0.250;2022-09-09T13:10:23;20.50;99.90
5962;DHT22;3007;50.770;0.250;2022-09-09T13:12:52;20.50;99.90
5962;DHT22;3007;50.770;0.250;2022-09-09T13:15:22;20.50;99.90
5962;DHT22;3007;50.770;0.250;2022-09-09T13:17:52;20.50;99.90
5962;DHT22;3007;50.770;0.250;2022-09-09T13:20:20;20.50;99.90
5962;DHT22;3007;50.770;0.250;2022-09-09T13:22:49;20.50;99.90
5962;DHT22;3007;50.770;0.250;2022-09-09T13:25:24;20.50;99.90
5962;DHT22;3007;50.770;0.250;2022-09-09T13:27:57;20.50;99.90
5962;DHT22;3007;50.770;0.250;2022-09-09T13:30:28;20.40;99.90
5962;DHT22;3007;50.770;0.250;2022-09-09T13:33:17;20.40;99.90
5962;DHT22;3007;50.770;0.250;2022-09-09T13:35:47;20.30;99.90
5962;DHT22;3007;50.770;0.250;2022-09-09T13:38:17;20.30;99.90
5962;DHT22;3007;50.770;0.250;2022-09-09T13:40:59;20.30;99.90
5962;DHT22;3007;50.770;0.250;2022-09-09T13:43:30;20.30;99.90
5962;DHT22;3007;50.770;0.250;2022-09-09T13:45:59;20.30;99.90
5962;DHT22;3007;50.770;0.250;2022-09-09T13:48:27;20.30;99.90
5962;DHT22;3007;50.770;0.250;2022-09-09T13:51:00;20.30;99.90
5962;DHT22;3007;50.770;0.250;2022-09-09T13:53:27;20.20;99.90
5962;DHT22;3007;50.770;0.250;2022-09-09T13:55:55;20.30;99.90
5962;DHT22;3007;50.770;0.250;2022-09-09T13:58:25;20.30;99.90
5962;DHT22;3007;50.770;0.250;2022-09-09T14:00:52;20.20;99.90
5962;DHT22;3007;50.770;0.250;2022-09-09T14:03:19;20.20;99.90
5962;DHT22;3007;50.770;0.250;2022-09-09T14:05:46;20.20;99.90
5962;DHT22;3007;50.770;0.250;2022-09-09T14:08:22;20.20;99.90
5962;DHT22;3007;50.770;0.250;2022-09-09T14:10:50;20.20;99.90
5962;DHT22;3007;50.770;0.250;2022-09-09T14:13:18;20.20;99.90
5962;DHT22;3007;50.770;0.250;2022-09-09T14:15:48;20.30;99.90
5962;DHT22;3007;50.770;0.250;2022-09-09T14:18:15;20.30;99.90
5962;DHT22;3007;50.770;0.250;2022-09-09T14:20:42;20.30;99.90
5962;DHT22;3007;50.770;0.250;2022-09-09T14:23:11;20.40;99.90
5962;DHT22;3007;50.770;0.250;2022-09-09T14:25:40;20.40;99.90
5962;DHT22;3007;50.770;0.250;2022-09-09T14:28:10;20.50;99.90
5962;DHT22;3007;50.770;0.250;2022-09-09T14:30:38;20.60;99.90
5962;DHT22;3007;50.770;0.250;2022-09-09T14:33:07;20.60;99.90
5962;DHT22;3007;50.770;0.250;2022-09-09T14:35:34;20.50;99.90
5962;DHT22;3007;50.770;0.250;2022-09-09T14:38:02;20.40;99.90
5962;DHT22;3007;50.770;0.250;2022-09-09T14:40:29;20.50;99.90
5962;DHT22;3007;50.770;0.250;2022-09-09T14:42:56;20.50;99.90
5962;DHT22;3007;50.770;0.250;2022-09-09T14:45:24;20.40;99.90
5962;DHT22;3007;50.770;0.250;2022-09-09T14:47:52;20.40;99.90
5962;DHT22;3007;50.770;0.250;2022-09-09T14:50:20;21.00;99.90
5962;DHT22;3007;50.770;0.250;2022-09-09T14:52:48;20.30;99.90
5962;DHT22;3007;50.770;0.250;2022-09-09T14:55:16;20.30;99.90
5962;DHT22;3007;50.770;0.250;2022-09-09T14:57:43;20.30;99.90
5962;DHT22;3007;50.770;0.250;2022-09-09T15:00:11;20.20;99.90
5962;DHT22;3007;50.770;0.250;2022-09-09T15:02:39;20.10;99.90
5962;DHT22;3007;50.770;0.250;2022-09-09T15:05:06;20.10;99.90
5962;DHT22;3007;50.770;0.250;2022-09-09T15:07:35;20.10;99.90
5962;DHT22;3007;50.770;0.250;2022-09-09T15:10:03;20.00;99.90
5962;DHT22;3007;50.770;0.250;2022-09-09T15:12:30;20.00;99.90
5962;DHT22;3007;50.770;0.250;2022-09-09T15:14:58;20.00;99.90
5962;DHT22;3007;50.770;0.250;2022-09-09T15:17:25;19.90;99.90
5962;DHT22;3007;50.770;0.250;2022-09-09T15:19:53;19.90;99.90
5962;DHT22;3007;50.770;0.250;2022-09-09T15:22:20;19.80;99.90
5962;DHT22;3007;50.770;0.250;2022-09-09T15:24:49;19.80;99.90
5962;DHT22;3007;50.770;0.250;2022-09-09T15:27:16;19.80;99.90
5962;DHT22;3007;50.770;0.250;2022-09-09T15:29:43;19.80;99.90
5962;DHT22;3007;50.770;0.250;2022-09-09T15:32:10;19.80;99.90
5962;DHT22;3007;50.770;0.250;2022-09-09T15:34:37;19.80;99.90
5962;DHT22;3007;50.770;0.250;2022-09-09T15:37:05;19.70;99.90
5962;DHT22;3007;50.770;0.250;2022-09-09T15:39:36;19.70;99.90
5962;DHT22;3007;50.770;0.250;2022-09-09T15:42:04;19.70;99.90
5962;DHT22;3007;50.770;0.250;2022-09-09T15:44:38;19.70;99.90
5962;DHT22;3007;50.770;0.250;2022-09-09T15:47:05;19.70;99.90
5962;DHT22;3007;50.770;0.250;2022-09-09T15:49:32;19.70;99.90
5962;DHT22;3007;50.770;0.250;2022-09-09T15:52:00;19.70;99.90
5962;DHT22;3007;50.770;0.250;2022-09-09T15:54:32;19.70;99.90
5962;DHT22;3007;50.770;0.250;2022-09-09T15:57:01;19.70;99.90
5962;DHT22;3007;50.770;0.250;2022-09-09T15:59:31;19.60;99.90
5962;DHT22;3007;50.770;0.250;2022-09-09T16:01:59;19.70;99.90
5962;DHT22;3007;50.770;0.250;2022-09-09T16:04:27;19.60;99.90
5962;DHT22;3007;50.770;0.250;2022-09-09T16:06:56;19.40;99.90
5962;DHT22;3007;50.770;0.250;2022-09-09T16:09:26;19.40;99.90
5962;DHT22;3007;50.770;0.250;2022-09-09T16:11:56;19.30;99.90
5962;DHT22;3007;50.770;0.250;2022-09-09T16:14:23;19.30;99.90
5962;DHT22;3007;50.770;0.250;2022-09-09T16:16:55;19.20;99.90
5962;DHT22;3007;50.770;0.250;2022-09-09T16:19:22;19.20;99.90
5962;DHT22;3007;50.770;0.250;2022-09-09T16:21:49;19.20;99.90
5962;DHT22;3007;50.770;0.250;2022-09-09T16:24:18;19.30;99.90
5962;DHT22;3007;50.770;0.250;2022-09-09T16:26:48;19.20;99.90
5962;DHT22;3007;50.770;0.250;2022-09-09T16:29:16;19.30;99.90